Terminal Aerodrome Forecast
Issued by NWS Mt. Holly, NJ

Home | Current Version | Previous Version | Text Only | Print | Product List | Glossary On
Versions: 1 2 3 4 5 6 7 8 9 10 11 12 13 14 15 16 17 18 19 20 21 22 23 24 25 26 27 28 29 30 31 32 33 34 35 36 37 38 39 40 41
000
FTAK31 PANC 251740
TAFABE
TAF
PABE 251740Z 2518/2618 17012KT P6SM SCT015 BKN060
     FM252000 19014KT 3SM -RASN SCT010 OVC025
     FM260100 24010KT P6SM VCSH BKN010 BKN030
     FM260400 19006KT P6SM FEW020 SCT040
     FM261500 16015KT P6SM FEW010 BKN035=

USA.gov is the U.S. government's official web portal to all federal, state and local government web resources and services.